Poroszlo, Hungary
Current Conditions -  °F | °C
As of 9:15 AM on Friday 24 Oct 2014 (Local Time) from LHSN Reporting Station
Light Rain Light Rain  
Wind Chill: 37°   Ceiling: 900
Heat Index: 45°   Visibility: 5mi
Dew Point: 43°   Wind: 18mph
Humidity: 93%   Direction: 50°NE
Pressure: 29.94"   Gusts: NA
Location:  47.65°N, 20.65°E
Report Text: LHSN 240715Z 05008MPS 8000 -RA BKN009 OVC020 07/06 Q1014 NOSIG RMK GRN
Loading
Personal Weather Stations






























Interactive Weather Map
Tropical Storm Tracking
New forecast layout! Learn more

10-Day Weather Forecast

Advertisements
Track Severe Weather on mobile